Colorado Springs, CO (80921)

11:53 PM MST on February 27, 2017 (GMT -0700)
Jackson Creek/ Baptist Road | | Change Station

Elev 7010 ft 39.06 °N, 104.83 °W | Updated 10 seconds ago

Clear
Clear
38.8 °F
Feels Like 32 °F
N
11.0
Wind Variable Wind from West
Gusts 22.0 mph

Today
High -- | Low -- °F
--% Chance of Precip.
Yesterday
High -- | Low -- °F
Precip. -- in
Pressure 29.58 in
Visibility 10.0 miles
Clouds Clear
Windchill 32 °F
Dew Point 17 °F
Humidity 41%
Rainfall 0.00 in
Snow Depth Not available.
6:34 AM 5:50 PM
Waxing Crescent, 3% visible
METAR KAFF 280558Z AUTO 24006G16KT 10SM CLR 04/M11 A2963 RMK AO2 SLP016 T00431113 10085 20014 58006
Pressure 29.58 in
Visibility 10.0 miles
Clouds Clear
Windchill 32 °F
Dew Point 17 °F
Humidity 41%
Rainfall 0.00 in
Snow Depth Not available.
6:34 AM 5:50 PM
Waxing Crescent, 3% visible
METAR KAFF 280558Z AUTO 24006G16KT 10SM CLR 04/M11 A2963 RMK AO2 SLP016 T00431113 10085 20014 58006

Get Your Daily Forecast Email!

Thanks for signing up!

Be on the lookout for a verification email in your inbox.

You'll start receiving the daily forecast at 8 AM.

×

10-Day Weather Forecast

Almanac

Astronomy

Feb. 27, 2017 Rise Set
Actual Time
Civil Twilight
Nautical Twilight
Astronomical Twilight
Moon
Length of Visible Light
Length of Day
Tomorrow will be .
, % of the Moon is Illuminated

Today's Extremes

State Highs State Lows

Community

WunderPhotos

Upload Photos

1,962,540 photos uploaded!

WunderBlog® & News

Nearby

Air Quality

  Air Quality AQ Index Pollutant
Not available.

Snow Depth

Station Depth Elevation

Earthquake Activity

City Distance Mag. Time & Date
Minimum magnitude displayed is 2.5.

Coastal Water Temperatures

Place Temperature

Stations

Nearby Weather Stations

Station Location Temp. Windchill Dew Point Humidity Wind Precip. Elev Updated Type
                   

Watches & Warnings

There are currently no watches in effect.